createdAt,value
2022-10-03T00:00:12.927Z,10.70
2022-10-03T00:02:51.593Z,10.70
2022-10-03T00:05:44.899Z,10.60
2022-10-03T00:08:42.822Z,10.50
2022-10-03T00:11:27.948Z,10.40
2022-10-03T00:14:05.002Z,10.30
2022-10-03T00:16:39.140Z,10.30
2022-10-03T00:19:35.791Z,10.20
2022-10-03T00:22:33.531Z,10.10
2022-10-03T00:25:22.218Z,10.00
2022-10-03T00:28:09.052Z,9.90
2022-10-03T00:30:59.170Z,9.90
2022-10-03T00:33:34.674Z,9.90
2022-10-03T00:36:10.117Z,9.80
2022-10-03T00:39:02.833Z,9.80
2022-10-03T00:41:35.409Z,9.70
2022-10-03T00:44:30.084Z,9.60
2022-10-03T00:47:17.873Z,9.60
2022-10-03T00:50:15.853Z,9.50
2022-10-03T00:53:06.654Z,9.50
2022-10-03T00:55:39.624Z,9.50
2022-10-03T00:58:31.049Z,9.40
2022-10-03T01:01:19.730Z,9.40
2022-10-03T01:04:18.183Z,9.30
2022-10-03T01:07:13.836Z,9.20
2022-10-03T01:09:53.468Z,9.20
2022-10-03T01:12:34.255Z,9.20
2022-10-03T01:15:19.000Z,9.10
2022-10-03T01:18:20.623Z,9.10
2022-10-03T01:20:58.864Z,9.10
2022-10-03T01:23:52.975Z,9.10
2022-10-03T01:26:32.037Z,9.10
2022-10-03T01:29:24.221Z,9.10
2022-10-03T01:32:05.936Z,9.10
2022-10-03T01:35:17.845Z,9.20
2022-10-03T01:38:04.508Z,9.20
2022-10-03T01:40:57.412Z,9.20
2022-10-03T01:43:43.619Z,9.20
2022-10-03T01:46:29.080Z,9.10
2022-10-03T01:49:26.873Z,9.10
2022-10-03T01:52:37.393Z,9.00
2022-10-03T01:55:32.839Z,9.00
2022-10-03T01:58:22.373Z,9.00
2022-10-03T02:01:14.398Z,9.10
2022-10-03T02:03:52.861Z,9.10
2022-10-03T02:06:29.941Z,9.10
2022-10-03T02:09:29.194Z,9.20
2022-10-03T02:12:23.822Z,9.20
2022-10-03T02:14:53.396Z,9.20
2022-10-03T02:17:30.669Z,9.20
2022-10-03T02:20:24.122Z,9.20
2022-10-03T02:22:54.304Z,9.20
2022-10-03T02:25:41.235Z,9.10
2022-10-03T02:28:33.005Z,9.10
2022-10-03T02:31:29.520Z,9.10
2022-10-03T02:34:24.358Z,9.10
2022-10-03T02:37:40.307Z,9.10
2022-10-03T02:40:57.779Z,9.10
2022-10-03T02:43:58.163Z,9.00
2022-10-03T02:47:26.328Z,9.00
2022-10-03T02:50:11.200Z,8.90
2022-10-03T02:53:13.684Z,8.80
2022-10-03T02:56:00.599Z,8.80
2022-10-03T02:59:09.731Z,8.70
2022-10-03T03:01:51.756Z,8.60
2022-10-03T03:04:18.693Z,8.60
2022-10-03T03:06:58.162Z,8.50
2022-10-03T03:09:50.062Z,8.60
2022-10-03T03:12:45.020Z,8.50
2022-10-03T03:15:43.938Z,8.50
2022-10-03T03:18:36.640Z,8.40
2022-10-03T03:21:26.784Z,8.40
2022-10-03T03:24:27.336Z,8.40
2022-10-03T03:27:13.403Z,8.40
2022-10-03T03:30:03.218Z,8.30
2022-10-03T03:32:48.294Z,8.30
2022-10-03T03:35:58.715Z,8.20
2022-10-03T03:38:57.033Z,8.30
2022-10-03T03:41:38.990Z,8.20
2022-10-03T03:44:24.839Z,8.20
2022-10-03T03:47:10.705Z,8.20
2022-10-03T03:50:31.418Z,8.20
2022-10-03T03:53:15.943Z,8.20
2022-10-03T03:56:03.056Z,8.10
2022-10-03T03:58:51.460Z,8.10
2022-10-03T04:01:37.618Z,8.10
2022-10-03T04:04:42.326Z,8.10
2022-10-03T04:07:48.329Z,8.10
2022-10-03T04:10:42.442Z,8.10
2022-10-03T04:13:18.963Z,8.00
2022-10-03T04:16:10.668Z,8.00
2022-10-03T04:19:00.105Z,8.00
2022-10-03T04:21:45.655Z,7.90
2022-10-03T04:24:44.118Z,7.90
2022-10-03T04:27:25.914Z,7.90
2022-10-03T04:30:01.644Z,7.80
2022-10-03T04:32:57.232Z,7.80
2022-10-03T04:35:47.684Z,7.80
2022-10-03T04:38:44.437Z,7.80
2022-10-03T04:41:27.742Z,7.80
2022-10-03T04:44:08.750Z,7.70
2022-10-03T04:46:39.715Z,7.80
2022-10-03T04:49:20.078Z,7.80
2022-10-03T04:52:12.512Z,7.80
2022-10-03T04:55:05.173Z,7.90
2022-10-03T04:57:47.386Z,7.90
2022-10-03T05:00:41.486Z,7.80
2022-10-03T05:03:43.777Z,7.80
2022-10-03T05:06:49.952Z,7.80
2022-10-03T05:09:32.653Z,7.80
2022-10-03T05:12:02.338Z,7.80
2022-10-03T05:14:50.955Z,7.80
2022-10-03T05:17:34.145Z,7.80
2022-10-03T05:20:16.037Z,7.80
2022-10-03T05:23:06.992Z,7.80
2022-10-03T05:25:55.151Z,7.90
2022-10-03T05:29:06.158Z,7.90
2022-10-03T05:31:47.053Z,8.00
2022-10-03T05:34:22.668Z,8.00
2022-10-03T05:37:14.369Z,8.10
2022-10-03T05:39:52.061Z,8.10
2022-10-03T05:42:55.326Z,8.10
2022-10-03T05:45:33.971Z,8.10
2022-10-03T05:48:28.884Z,8.20
2022-10-03T05:51:17.009Z,8.30
2022-10-03T05:54:05.551Z,8.30
2022-10-03T05:57:01.722Z,8.30
2022-10-03T05:59:53.540Z,8.40
2022-10-03T06:02:35.459Z,8.50
2022-10-03T06:05:17.084Z,8.50
2022-10-03T06:08:14.743Z,8.50
2022-10-03T06:10:47.478Z,8.60
2022-10-03T06:13:14.336Z,8.60
2022-10-03T06:16:09.188Z,8.60
2022-10-03T06:19:06.897Z,8.60
2022-10-03T06:21:42.629Z,8.50
2022-10-03T06:24:30.898Z,8.50
2022-10-03T06:27:03.496Z,8.60
2022-10-03T06:30:01.387Z,8.60
2022-10-03T06:33:15.767Z,8.70
2022-10-03T06:35:54.544Z,8.80
2022-10-03T06:38:46.236Z,8.90
2022-10-03T06:41:21.646Z,9.00
2022-10-03T06:43:59.263Z,9.00
2022-10-03T06:47:00.737Z,9.10
2022-10-03T06:49:27.461Z,9.20
2022-10-03T06:52:16.812Z,9.30
2022-10-03T06:55:04.492Z,9.20
2022-10-03T06:57:56.314Z,9.30
2022-10-03T07:00:51.073Z,9.50
2022-10-03T07:03:55.357Z,9.60
2022-10-03T07:06:44.181Z,9.70
2022-10-03T07:09:31.959Z,9.60
2022-10-03T07:12:21.108Z,9.70
2022-10-03T07:15:03.875Z,10.00
2022-10-03T07:17:54.273Z,10.20
2022-10-03T07:20:41.313Z,10.30
2022-10-03T07:23:26.814Z,10.40
2022-10-03T07:26:23.076Z,10.50
2022-10-03T07:29:17.309Z,10.60
2022-10-03T07:32:10.118Z,10.60
2022-10-03T07:35:06.072Z,10.60
2022-10-03T07:38:24.962Z,10.70
2022-10-03T07:41:14.214Z,10.80
2022-10-03T07:44:14.316Z,10.70
2022-10-03T07:47:19.223Z,10.60
2022-10-03T07:50:11.071Z,10.60
2022-10-03T07:52:46.997Z,10.70
2022-10-03T07:55:53.309Z,10.70
2022-10-03T07:58:26.355Z,10.70
2022-10-03T08:01:31.129Z,10.70
2022-10-03T08:04:10.067Z,10.60
2022-10-03T08:06:48.141Z,10.60
2022-10-03T08:09:20.696Z,10.70
2022-10-03T08:12:05.417Z,10.60
2022-10-03T08:14:44.282Z,10.40
2022-10-03T08:17:39.589Z,10.50
2022-10-03T08:20:24.465Z,10.50
2022-10-03T08:22:54.452Z,10.50
2022-10-03T08:25:29.663Z,10.50
2022-10-03T08:28:38.679Z,10.50
2022-10-03T08:31:37.306Z,10.60
2022-10-03T08:34:42.341Z,10.70
2022-10-03T08:37:40.008Z,10.60
2022-10-03T08:40:39.373Z,10.70
2022-10-03T08:44:02.978Z,10.90
2022-10-03T09:14:18.749Z,12.40
2022-10-03T11:01:45.992Z,21.50
2022-10-03T11:31:21.820Z,22.50
2022-10-03T11:38:11.301Z,23.70
2022-10-03T11:41:15.919Z,24.00
2022-10-03T11:44:13.913Z,24.30
2022-10-03T11:47:32.777Z,23.80
2022-10-03T11:54:29.830Z,23.30
2022-10-03T11:57:19.065Z,22.90
2022-10-03T12:00:05.035Z,23.90
2022-10-03T12:07:23.810Z,24.10
2022-10-03T12:46:06.863Z,21.00
2022-10-03T12:49:31.725Z,22.80
2022-10-03T12:55:09.898Z,24.90
2022-10-03T12:57:42.721Z,25.10
2022-10-03T13:00:27.766Z,25.50
2022-10-03T13:03:02.976Z,26.10
2022-10-03T13:05:42.201Z,25.40
2022-10-03T13:09:06.155Z,25.00
2022-10-03T13:12:07.386Z,23.60
2022-10-03T14:05:05.369Z,24.20
2022-10-03T14:07:58.240Z,24.50
2022-10-03T14:10:28.009Z,25.10
2022-10-03T14:13:28.540Z,24.50
2022-10-03T14:16:15.391Z,23.50
2022-10-03T14:19:35.932Z,23.80
2022-10-03T14:22:47.885Z,23.30
2022-10-03T14:26:00.178Z,22.50
2022-10-03T14:29:11.034Z,23.10
2022-10-03T14:31:44.287Z,23.50
2022-10-03T14:34:33.956Z,23.50
2022-10-03T14:37:30.273Z,23.90
2022-10-03T14:40:32.411Z,23.90
2022-10-03T14:43:11.145Z,23.80
2022-10-03T14:45:45.114Z,23.50
2022-10-03T14:48:36.472Z,23.10
2022-10-03T14:51:19.453Z,22.60
2022-10-03T14:54:01.769Z,21.90
2022-10-03T14:56:41.508Z,22.00
2022-10-03T14:59:20.138Z,22.10
2022-10-03T15:02:27.494Z,22.20
2022-10-03T15:05:26.379Z,22.20
2022-10-03T15:34:48.967Z,21.50
2022-10-03T16:22:55.402Z,16.50
2022-10-03T16:26:28.785Z,15.90
2022-10-03T16:36:59.825Z,14.10
2022-10-03T16:40:02.166Z,13.70
2022-10-03T17:13:34.727Z,11.50
2022-10-03T17:16:08.466Z,11.40
2022-10-03T17:18:44.645Z,11.40
2022-10-03T17:21:25.902Z,11.30
2022-10-03T17:24:10.035Z,11.20
2022-10-03T17:26:49.059Z,11.20
2022-10-03T17:29:24.017Z,11.10
2022-10-03T17:32:25.283Z,11.00
2022-10-03T17:35:00.845Z,11.00
2022-10-03T17:37:56.296Z,10.90
2022-10-03T17:40:40.560Z,10.80
2022-10-03T17:43:36.648Z,10.70
2022-10-03T17:46:27.434Z,10.70
2022-10-03T17:49:17.249Z,10.60
2022-10-03T17:51:47.544Z,10.50
2022-10-03T17:54:19.912Z,10.40
2022-10-03T17:57:00.237Z,10.30
2022-10-03T17:59:57.708Z,10.30
2022-10-03T18:02:32.381Z,10.20
2022-10-03T18:05:39.840Z,10.10
2022-10-03T18:08:12.836Z,10.10
2022-10-03T18:10:49.223Z,10.00
2022-10-03T18:13:22.708Z,9.90
2022-10-03T18:16:09.990Z,9.80
2022-10-03T18:18:46.116Z,9.80
2022-10-03T18:21:45.991Z,9.70
2022-10-03T18:24:21.765Z,9.60
2022-10-03T18:26:58.134Z,9.60
2022-10-03T18:29:51.288Z,9.50
2022-10-03T18:32:22.584Z,9.50
2022-10-03T18:35:15.141Z,9.50
2022-10-03T18:37:44.904Z,9.50
2022-10-03T18:40:24.960Z,9.50
2022-10-03T18:42:51.961Z,9.40
2022-10-03T18:45:33.711Z,9.30
2022-10-03T18:48:12.660Z,9.20
2022-10-03T18:51:03.338Z,9.20
2022-10-03T18:53:46.718Z,9.10
2022-10-03T18:56:20.928Z,9.10
2022-10-03T18:59:03.735Z,9.00
2022-10-03T19:01:44.187Z,8.90
2022-10-03T19:04:20.914Z,8.90
2022-10-03T19:06:52.729Z,8.80
2022-10-03T19:09:25.386Z,8.80
2022-10-03T19:12:20.643Z,8.70
2022-10-03T19:15:10.414Z,8.70
2022-10-03T19:17:40.081Z,8.70
2022-10-03T19:20:21.286Z,8.70
2022-10-03T19:23:11.753Z,8.60
2022-10-03T19:25:40.998Z,8.60
2022-10-03T19:28:29.621Z,8.60
2022-10-03T19:31:05.314Z,8.60
2022-10-03T19:33:38.812Z,8.50
2022-10-03T19:36:07.880Z,8.50
2022-10-03T19:38:41.929Z,8.50
2022-10-03T19:41:30.414Z,8.40
2022-10-03T19:44:06.227Z,8.40
2022-10-03T19:46:49.378Z,8.40
2022-10-03T19:49:27.826Z,8.30
2022-10-03T19:52:30.203Z,8.30
2022-10-03T19:55:02.841Z,8.30
2022-10-03T19:57:43.361Z,8.20
2022-10-03T20:00:16.153Z,8.10
2022-10-03T20:02:44.560Z,8.10
2022-10-03T20:05:20.174Z,8.20
2022-10-03T20:07:59.817Z,8.10
2022-10-03T20:11:04.583Z,8.10
2022-10-03T20:13:31.655Z,8.00
2022-10-03T20:15:58.894Z,8.00
2022-10-03T20:18:31.743Z,7.90
2022-10-03T20:20:59.895Z,7.90
2022-10-03T20:23:31.580Z,7.90
2022-10-03T20:26:04.061Z,7.80
2022-10-03T20:29:01.697Z,7.80
2022-10-03T20:31:30.554Z,7.80
2022-10-03T20:34:01.645Z,7.80
2022-10-03T20:36:32.865Z,7.80
2022-10-03T20:39:14.929Z,7.80
2022-10-03T20:41:41.952Z,7.90
2022-10-03T20:44:28.289Z,7.90
2022-10-03T20:47:18.032Z,7.90
2022-10-03T20:49:51.691Z,7.90
2022-10-03T20:52:21.430Z,7.90
2022-10-03T20:55:00.535Z,7.80
2022-10-03T20:57:37.960Z,7.70
2022-10-03T21:00:31.279Z,7.70
2022-10-03T21:03:27.595Z,7.70
2022-10-03T21:05:57.510Z,7.70
2022-10-03T21:08:31.763Z,7.70
2022-10-03T21:11:19.498Z,7.60
2022-10-03T21:13:56.964Z,7.60
2022-10-03T21:16:27.801Z,7.60
2022-10-03T21:19:13.340Z,7.60
2022-10-03T21:21:46.322Z,7.50
2022-10-03T21:24:13.211Z,7.50
2022-10-03T21:26:54.311Z,7.50
2022-10-03T21:29:23.810Z,7.50
2022-10-03T21:32:11.524Z,7.50
2022-10-03T21:34:41.062Z,7.50
2022-10-03T21:37:29.408Z,7.40
2022-10-03T21:40:25.252Z,7.40
2022-10-03T21:43:06.498Z,7.40
2022-10-03T21:45:43.024Z,7.30
2022-10-03T21:48:18.590Z,7.20
2022-10-03T21:51:06.287Z,7.20
2022-10-03T21:53:45.067Z,7.20
2022-10-03T21:56:59.883Z,7.10
2022-10-03T21:59:57.619Z,7.10
2022-10-03T22:02:24.421Z,7.10
2022-10-03T22:05:04.295Z,7.10
2022-10-03T22:07:39.900Z,7.00
2022-10-03T22:10:20.462Z,7.00
2022-10-03T22:12:51.783Z,6.90
2022-10-03T22:15:34.520Z,7.00
2022-10-03T22:18:13.051Z,7.00
2022-10-03T22:20:56.365Z,7.00
2022-10-03T22:23:54.493Z,7.10
2022-10-03T22:26:39.532Z,7.10
2022-10-03T22:29:38.407Z,7.10
2022-10-03T22:32:16.555Z,7.10
2022-10-03T22:34:52.271Z,7.20
2022-10-03T22:37:19.473Z,7.10
2022-10-03T22:39:48.449Z,7.00
2022-10-03T22:42:16.514Z,6.90
2022-10-03T22:44:47.904Z,6.90
2022-10-03T22:47:21.860Z,7.00
2022-10-03T22:49:51.597Z,7.00
2022-10-03T22:52:25.371Z,6.90
2022-10-03T22:54:53.160Z,6.90
2022-10-03T22:57:22.662Z,6.90
2022-10-03T23:00:05.761Z,6.80
2022-10-03T23:02:40.549Z,6.80
2022-10-03T23:05:28.860Z,6.80
2022-10-03T23:08:22.088Z,6.80
2022-10-03T23:11:26.117Z,6.80
2022-10-03T23:13:55.233Z,6.70
2022-10-03T23:17:05.211Z,6.80
2022-10-03T23:19:47.916Z,6.70
2022-10-03T23:22:18.353Z,6.70
2022-10-03T23:24:54.609Z,6.60
2022-10-03T23:27:43.591Z,6.70
2022-10-03T23:30:14.904Z,6.70
2022-10-03T23:32:47.451Z,6.70
2022-10-03T23:35:38.682Z,6.60
2022-10-03T23:38:31.193Z,6.60
2022-10-03T23:41:02.968Z,6.50
2022-10-03T23:43:36.009Z,6.50
2022-10-03T23:46:12.822Z,6.50
2022-10-03T23:48:45.062Z,6.50
2022-10-03T23:51:16.581Z,6.50
2022-10-03T23:53:52.728Z,6.50
2022-10-03T23:56:22.546Z,6.50
2022-10-03T23:59:08.120Z,6.40
